ETX7813 KMDW-KCLE
Flight info
| Callsign | ETX7813 |
|---|---|
| Flight time | 1h 26m |
| Altitude | 21000 |
| Route | EARND ELANR EMMLY ETAME JIMUR DRUGA ROKNN4 |
| Aircraft | B350/L-SBGRW/S |
Departure
| Time | 2026-05-05 23:21 |
|---|---|
| Airport | Chicago Midway International Airport (KMDW) |
Arrival
| Time | 2026-05-06 00:48 |
|---|---|
| Airport | Cleveland Hopkins International Airport (KCLE) |
| Time | Latitude | Longitude | Altitude | Speed | Heading |
|---|---|---|---|---|---|
| 2026-05-05 22:49 | 41.78074 | -87.75089 | 621 ft | 0 kts | 328° |
| 2026-05-05 23:09 | 41.78087 | -87.75077 | 625 ft | 8 kts | 67° |
| 2026-05-05 23:09 | 41.78082 | -87.75027 | 626 ft | 6 kts | 47° |
| 2026-05-05 23:10 | 41.78083 | -87.74967 | 630 ft | 9 kts | 135° |
| 2026-05-05 23:10 | 41.78028 | -87.74892 | 620 ft | 13 kts | 136° |
| 2026-05-05 23:10 | 41.77947 | -87.74792 | 617 ft | 18 kts | 139° |
| 2026-05-05 23:10 | 41.77902 | -87.74739 | 621 ft | 0 kts | 116° |
| 2026-05-05 23:11 | 41.78074 | -87.75089 | 621 ft | 0 kts | 328° |
| 2026-05-05 23:17 | 41.78077 | -87.75090 | 626 ft | 1 kts | 2° |
| 2026-05-05 23:17 | 41.78079 | -87.75045 | 621 ft | 10 kts | 117° |
| 2026-05-05 23:17 | 41.78087 | -87.74959 | 620 ft | 16 kts | 147° |
| 2026-05-05 23:17 | 41.77979 | -87.74825 | 618 ft | 21 kts | 123° |
| 2026-05-05 23:18 | 41.77952 | -87.74764 | 616 ft | 7 kts | 117° |
| 2026-05-05 23:18 | 41.77947 | -87.74708 | 615 ft | 9 kts | 91° |
| 2026-05-05 23:18 | 41.77926 | -87.74638 | 617 ft | 8 kts | 128° |
| 2026-05-05 23:18 | 41.77898 | -87.74578 | 618 ft | 8 kts | 106° |
| 2026-05-05 23:19 | 41.77895 | -87.74506 | 617 ft | 8 kts | 89° |
| 2026-05-05 23:19 | 41.77900 | -87.74464 | 619 ft | 0 kts | 78° |
| 2026-05-05 23:20 | 41.77910 | -87.74433 | 616 ft | 14 kts | 54° |
| 2026-05-05 23:20 | 41.78000 | -87.74487 | 622 ft | 36 kts | 311° |
| 2026-05-05 23:20 | 41.78340 | -87.74962 | 620 ft | 100 kts | 314° |
| 2026-05-05 23:21 | 41.78923 | -87.75785 | 659 ft | 139 kts | 315° |
| 2026-05-05 23:21 | 41.79673 | -87.76777 | 901 ft | 162 kts | 314° |
| 2026-05-05 23:21 | 41.80405 | -87.77933 | 1781 ft | 157 kts | 294° |
| 2026-05-05 23:21 | 41.80631 | -87.79348 | 2235 ft | 164 kts | 257° |
| 2026-05-05 23:22 | 41.80004 | -87.80603 | 2713 ft | 170 kts | 212° |
| 2026-05-05 23:22 | 41.78816 | -87.80779 | 3281 ft | 185 kts | 172° |
| 2026-05-05 23:22 | 41.77611 | -87.80035 | 3847 ft | 190 kts | 155° |
| 2026-05-05 23:22 | 41.76588 | -87.79139 | 4870 ft | 168 kts | 153° |
| 2026-05-05 23:23 | 41.75532 | -87.78381 | 5237 ft | 185 kts | 168° |
| 2026-05-05 23:23 | 41.74238 | -87.77794 | 5576 ft | 201 kts | 166° |
| 2026-05-05 23:23 | 41.72829 | -87.77129 | 5529 ft | 231 kts | 166° |
| 2026-05-05 23:23 | 41.71220 | -87.76402 | 5498 ft | 250 kts | 166° |
| 2026-05-05 23:24 | 41.69517 | -87.75656 | 5489 ft | 263 kts | 167° |
| 2026-05-05 23:24 | 41.67747 | -87.74899 | 5472 ft | 271 kts | 167° |
| 2026-05-05 23:24 | 41.65962 | -87.74152 | 5517 ft | 275 kts | 167° |
| 2026-05-05 23:24 | 41.64132 | -87.73350 | 5529 ft | 280 kts | 160° |
| 2026-05-05 23:25 | 41.62619 | -87.71685 | 5532 ft | 291 kts | 126° |
| 2026-05-05 23:25 | 41.61614 | -87.69375 | 5893 ft | 280 kts | 126° |
| 2026-05-05 23:25 | 41.60348 | -87.67507 | 6340 ft | 267 kts | 143° |
| 2026-05-05 23:25 | 41.58815 | -87.66225 | 6754 ft | 255 kts | 160° |
| 2026-05-05 23:26 | 41.57183 | -87.65344 | 7165 ft | 250 kts | 163° |
| 2026-05-05 23:26 | 41.55576 | -87.64490 | 7574 ft | 248 kts | 163° |
| 2026-05-05 23:26 | 41.53987 | -87.63628 | 8001 ft | 246 kts | 163° |
| 2026-05-05 23:26 | 41.52412 | -87.62761 | 8432 ft | 244 kts | 163° |
| 2026-05-05 23:27 | 41.50843 | -87.61888 | 8876 ft | 244 kts | 163° |
| 2026-05-05 23:27 | 41.49277 | -87.61012 | 9273 ft | 246 kts | 163° |
| 2026-05-05 23:27 | 41.47685 | -87.60122 | 9579 ft | 250 kts | 163° |
| 2026-05-05 23:27 | 41.46065 | -87.59215 | 9878 ft | 253 kts | 163° |
| 2026-05-05 23:28 | 41.44437 | -87.58300 | 10162 ft | 256 kts | 163° |
| 2026-05-05 23:28 | 41.42782 | -87.57422 | 10446 ft | 255 kts | 169° |
| 2026-05-05 23:28 | 41.41057 | -87.56984 | 10742 ft | 250 kts | 182° |
| 2026-05-05 23:28 | 41.39317 | -87.56742 | 11031 ft | 253 kts | 179° |
| 2026-05-05 23:29 | 41.37572 | -87.56410 | 11335 ft | 254 kts | 179° |
| 2026-05-05 23:29 | 41.35814 | -87.56080 | 11644 ft | 256 kts | 179° |
| 2026-05-05 23:29 | 41.34082 | -87.55766 | 11929 ft | 257 kts | 180° |
| 2026-05-05 23:29 | 41.32278 | -87.55446 | 12244 ft | 258 kts | 180° |
| 2026-05-05 23:30 | 41.30502 | -87.55134 | 12549 ft | 258 kts | 180° |
| 2026-05-05 23:30 | 41.28714 | -87.54822 | 12856 ft | 260 kts | 180° |
| 2026-05-05 23:30 | 41.26919 | -87.54512 | 13169 ft | 260 kts | 180° |
| 2026-05-05 23:30 | 41.25163 | -87.54207 | 13473 ft | 261 kts | 180° |
| 2026-05-05 23:31 | 41.23427 | -87.53906 | 13769 ft | 262 kts | 181° |
| 2026-05-05 23:31 | 41.21618 | -87.53591 | 14054 ft | 262 kts | 180° |
| 2026-05-05 23:31 | 41.19812 | -87.53278 | 14340 ft | 263 kts | 180° |
| 2026-05-05 23:31 | 41.17999 | -87.52887 | 14625 ft | 265 kts | 177° |
| 2026-05-05 23:32 | 41.16185 | -87.52391 | 14912 ft | 266 kts | 176° |
| 2026-05-05 23:32 | 41.14375 | -87.51871 | 15208 ft | 266 kts | 176° |
| 2026-05-05 23:32 | 41.12573 | -87.51355 | 15497 ft | 265 kts | 176° |
| 2026-05-05 23:32 | 41.10766 | -87.50844 | 15795 ft | 265 kts | 176° |
| 2026-05-05 23:33 | 41.08969 | -87.50346 | 16092 ft | 264 kts | 176° |
| 2026-05-05 23:33 | 41.07167 | -87.49853 | 16393 ft | 263 kts | 176° |
| 2026-05-05 23:33 | 41.05384 | -87.49368 | 16695 ft | 262 kts | 177° |
| 2026-05-05 23:33 | 41.03610 | -87.48889 | 17004 ft | 261 kts | 177° |
| 2026-05-05 23:34 | 41.01812 | -87.48406 | 17319 ft | 260 kts | 177° |
| 2026-05-05 23:34 | 41.00038 | -87.47931 | 17635 ft | 259 kts | 177° |
| 2026-05-05 23:34 | 40.98274 | -87.47459 | 17910 ft | 260 kts | 177° |
| 2026-05-05 23:34 | 40.96499 | -87.46987 | 18146 ft | 261 kts | 177° |
| 2026-05-05 23:35 | 40.94709 | -87.46510 | 18359 ft | 262 kts | 177° |
| 2026-05-05 23:35 | 40.92908 | -87.46030 | 18572 ft | 263 kts | 177° |
| 2026-05-05 23:35 | 40.91112 | -87.45551 | 18776 ft | 264 kts | 178° |
| 2026-05-05 23:35 | 40.89310 | -87.45071 | 18987 ft | 265 kts | 177° |
| 2026-05-05 23:36 | 40.87527 | -87.44595 | 19198 ft | 265 kts | 178° |
| 2026-05-05 23:36 | 40.85719 | -87.44112 | 19409 ft | 265 kts | 177° |
| 2026-05-05 23:36 | 40.83914 | -87.43631 | 19626 ft | 265 kts | 178° |
| 2026-05-05 23:36 | 40.82106 | -87.43149 | 19845 ft | 265 kts | 178° |
| 2026-05-05 23:37 | 40.80303 | -87.42669 | 20061 ft | 265 kts | 178° |
| 2026-05-05 23:37 | 40.78490 | -87.42187 | 20284 ft | 265 kts | 178° |
| 2026-05-05 23:37 | 40.76682 | -87.41707 | 20505 ft | 265 kts | 178° |
| 2026-05-05 23:37 | 40.74872 | -87.41226 | 20727 ft | 265 kts | 178° |
| 2026-05-05 23:38 | 40.73057 | -87.40746 | 20857 ft | 270 kts | 178° |
| 2026-05-05 23:38 | 40.71256 | -87.40276 | 20880 ft | 276 kts | 178° |
| 2026-05-05 23:38 | 40.69349 | -87.39778 | 20892 ft | 282 kts | 177° |
| 2026-05-05 23:38 | 40.67408 | -87.39268 | 20897 ft | 287 kts | 177° |
| 2026-05-05 23:39 | 40.65437 | -87.38748 | 20898 ft | 291 kts | 177° |
| 2026-05-05 23:39 | 40.63443 | -87.38220 | 20903 ft | 294 kts | 176° |
| 2026-05-05 23:39 | 40.61436 | -87.37688 | 20902 ft | 296 kts | 176° |
| 2026-05-05 23:39 | 40.59411 | -87.37151 | 20900 ft | 298 kts | 176° |
| 2026-05-05 23:40 | 40.57374 | -87.36611 | 20902 ft | 299 kts | 176° |
| 2026-05-05 23:40 | 40.55328 | -87.36069 | 20897 ft | 300 kts | 176° |
| 2026-05-05 23:40 | 40.53277 | -87.35526 | 20898 ft | 301 kts | 176° |
| 2026-05-05 23:40 | 40.51219 | -87.34983 | 20898 ft | 302 kts | 176° |
| 2026-05-05 23:41 | 40.49156 | -87.34439 | 20898 ft | 302 kts | 176° |
| 2026-05-05 23:41 | 40.47093 | -87.33893 | 20894 ft | 303 kts | 176° |
| 2026-05-05 23:41 | 40.45053 | -87.33068 | 20891 ft | 312 kts | 164° |
| 2026-05-05 23:41 | 40.43153 | -87.31626 | 20892 ft | 321 kts | 150° |
| 2026-05-05 23:42 | 40.41377 | -87.29834 | 20889 ft | 321 kts | 150° |
| 2026-05-05 23:42 | 40.39652 | -87.28207 | 20889 ft | 320 kts | 152° |
| 2026-05-05 23:42 | 40.38449 | -87.27099 | 20888 ft | 320 kts | 152° |
| 2026-05-05 23:42 | 40.36625 | -87.25422 | 20889 ft | 320 kts | 152° |
| 2026-05-05 23:43 | 40.34803 | -87.23742 | 20888 ft | 320 kts | 152° |
| 2026-05-05 23:43 | 40.32983 | -87.22057 | 20887 ft | 320 kts | 152° |
| 2026-05-05 23:43 | 40.31171 | -87.20374 | 20887 ft | 320 kts | 152° |
| 2026-05-05 23:43 | 40.29356 | -87.18684 | 20889 ft | 320 kts | 152° |
| 2026-05-05 23:44 | 40.27543 | -87.16994 | 20886 ft | 320 kts | 152° |
| 2026-05-05 23:44 | 40.25730 | -87.15305 | 20887 ft | 320 kts | 152° |
| 2026-05-05 23:44 | 40.23917 | -87.13616 | 20882 ft | 320 kts | 152° |
| 2026-05-05 23:44 | 40.22105 | -87.11929 | 20887 ft | 320 kts | 152° |
| 2026-05-05 23:45 | 40.20288 | -87.10239 | 20888 ft | 321 kts | 152° |
| 2026-05-05 23:45 | 40.18466 | -87.08545 | 20889 ft | 322 kts | 152° |
| 2026-05-05 23:45 | 40.16637 | -87.06846 | 20884 ft | 322 kts | 152° |
| 2026-05-05 23:45 | 40.14807 | -87.05148 | 20882 ft | 323 kts | 152° |
| 2026-05-05 23:46 | 40.13573 | -87.04001 | 20881 ft | 323 kts | 152° |
| 2026-05-05 23:46 | 40.11146 | -87.01750 | 20880 ft | 324 kts | 152° |
| 2026-05-05 23:46 | 40.09906 | -87.00601 | 20880 ft | 324 kts | 152° |
| 2026-05-05 23:46 | 40.08065 | -86.98895 | 20879 ft | 325 kts | 152° |
| 2026-05-05 23:47 | 40.06245 | -86.97211 | 20877 ft | 325 kts | 152° |
| 2026-05-05 23:47 | 40.04401 | -86.95504 | 20875 ft | 325 kts | 152° |
| 2026-05-05 23:47 | 40.02531 | -86.93775 | 20875 ft | 325 kts | 152° |
| 2026-05-05 23:47 | 40.00683 | -86.92067 | 20878 ft | 325 kts | 152° |
| 2026-05-05 23:48 | 39.98944 | -86.90146 | 20878 ft | 333 kts | 140° |
| 2026-05-05 23:48 | 39.97507 | -86.87744 | 20880 ft | 340 kts | 126° |
| 2026-05-05 23:48 | 39.96403 | -86.84995 | 20874 ft | 342 kts | 122° |
| 2026-05-05 23:48 | 39.95278 | -86.82259 | 20875 ft | 342 kts | 124° |
| 2026-05-05 23:49 | 39.94123 | -86.79559 | 20877 ft | 342 kts | 124° |
| 2026-05-05 23:49 | 39.92967 | -86.76861 | 20877 ft | 341 kts | 124° |
| 2026-05-05 23:49 | 39.91810 | -86.74154 | 20879 ft | 342 kts | 124° |
| 2026-05-05 23:49 | 39.90658 | -86.71447 | 20878 ft | 341 kts | 124° |
| 2026-05-05 23:50 | 39.89512 | -86.68742 | 20880 ft | 341 kts | 124° |
| 2026-05-05 23:50 | 39.88368 | -86.66039 | 20880 ft | 341 kts | 124° |
| 2026-05-05 23:50 | 39.87222 | -86.63328 | 20881 ft | 341 kts | 124° |
| 2026-05-05 23:50 | 39.86079 | -86.60627 | 20879 ft | 341 kts | 124° |
| 2026-05-05 23:51 | 39.84933 | -86.57921 | 20878 ft | 341 kts | 124° |
| 2026-05-05 23:51 | 39.83787 | -86.55216 | 20875 ft | 341 kts | 124° |
| 2026-05-05 23:51 | 39.82642 | -86.52515 | 20876 ft | 342 kts | 124° |
| 2026-05-05 23:51 | 39.81492 | -86.49806 | 20874 ft | 342 kts | 124° |
| 2026-05-05 23:52 | 39.80339 | -86.47094 | 20877 ft | 343 kts | 124° |
| 2026-05-05 23:52 | 39.79186 | -86.44383 | 20875 ft | 343 kts | 124° |
| 2026-05-05 23:52 | 39.78028 | -86.41662 | 20875 ft | 344 kts | 124° |
| 2026-05-05 23:52 | 39.76870 | -86.38944 | 20887 ft | 344 kts | 124° |
| 2026-05-05 23:53 | 39.75710 | -86.36220 | 20884 ft | 344 kts | 124° |
| 2026-05-05 23:53 | 39.74550 | -86.33501 | 20883 ft | 344 kts | 124° |
| 2026-05-05 23:53 | 39.73389 | -86.30782 | 20882 ft | 344 kts | 124° |
| 2026-05-05 23:53 | 39.72222 | -86.28053 | 20859 ft | 345 kts | 125° |
| 2026-05-05 23:54 | 39.71061 | -86.25339 | 20853 ft | 344 kts | 125° |
| 2026-05-05 23:54 | 39.69895 | -86.22616 | 20869 ft | 344 kts | 125° |
| 2026-05-05 23:54 | 39.68731 | -86.19898 | 20856 ft | 344 kts | 125° |
| 2026-05-05 23:54 | 39.67580 | -86.17215 | 20870 ft | 344 kts | 125° |
| 2026-05-05 23:55 | 39.66412 | -86.14496 | 20868 ft | 344 kts | 125° |
| 2026-05-05 23:55 | 39.65249 | -86.11789 | 20871 ft | 344 kts | 125° |
| 2026-05-05 23:55 | 39.64066 | -86.09038 | 20865 ft | 344 kts | 125° |
| 2026-05-05 23:55 | 39.62913 | -86.06359 | 20869 ft | 344 kts | 125° |
| 2026-05-05 23:56 | 39.61747 | -86.03655 | 20868 ft | 344 kts | 125° |
| 2026-05-05 23:56 | 39.60580 | -86.00946 | 20877 ft | 344 kts | 125° |
| 2026-05-05 23:56 | 39.59411 | -85.98239 | 20867 ft | 344 kts | 125° |
| 2026-05-05 23:56 | 39.58241 | -85.95531 | 20869 ft | 345 kts | 125° |
| 2026-05-05 23:57 | 39.57068 | -85.92818 | 20867 ft | 345 kts | 125° |
| 2026-05-05 23:57 | 39.55895 | -85.90106 | 20870 ft | 345 kts | 125° |
| 2026-05-05 23:57 | 39.54720 | -85.87395 | 20866 ft | 345 kts | 125° |
| 2026-05-05 23:57 | 39.53547 | -85.84686 | 20865 ft | 345 kts | 125° |
| 2026-05-05 23:58 | 39.52370 | -85.81974 | 20863 ft | 345 kts | 125° |
| 2026-05-05 23:58 | 39.51199 | -85.79277 | 20866 ft | 345 kts | 125° |
| 2026-05-05 23:58 | 39.50021 | -85.76567 | 20867 ft | 345 kts | 126° |
| 2026-05-05 23:58 | 39.48845 | -85.73862 | 20851 ft | 345 kts | 126° |
| 2026-05-05 23:59 | 39.47666 | -85.71157 | 20850 ft | 345 kts | 126° |
| 2026-05-05 23:59 | 39.46489 | -85.68455 | 20849 ft | 345 kts | 126° |
| 2026-05-05 23:59 | 39.45308 | -85.65747 | 20851 ft | 345 kts | 126° |
| 2026-05-05 23:59 | 39.44127 | -85.63041 | 20847 ft | 345 kts | 126° |
| 2026-05-06 00:00 | 39.42944 | -85.60334 | 20848 ft | 345 kts | 126° |
| 2026-05-06 00:00 | 39.41762 | -85.57630 | 20848 ft | 345 kts | 126° |
| 2026-05-06 00:00 | 39.40580 | -85.54930 | 20837 ft | 346 kts | 126° |
| 2026-05-06 00:00 | 39.39395 | -85.52223 | 20832 ft | 346 kts | 126° |
| 2026-05-06 00:01 | 39.38208 | -85.49517 | 20829 ft | 346 kts | 126° |
| 2026-05-06 00:01 | 39.37024 | -85.46820 | 20825 ft | 346 kts | 126° |
| 2026-05-06 00:01 | 39.35833 | -85.44106 | 20822 ft | 346 kts | 126° |
| 2026-05-06 00:01 | 39.34648 | -85.41410 | 20822 ft | 346 kts | 126° |
| 2026-05-06 00:02 | 39.33455 | -85.38700 | 20822 ft | 346 kts | 126° |
| 2026-05-06 00:02 | 39.32344 | -85.35932 | 20820 ft | 351 kts | 117° |
| 2026-05-06 00:02 | 39.31666 | -85.32889 | 20819 ft | 357 kts | 103° |
| 2026-05-06 00:02 | 39.31494 | -85.30349 | 20824 ft | 359 kts | 91° |
| 2026-05-06 00:03 | 39.31747 | -85.27159 | 20825 ft | 361 kts | 77° |
| 2026-05-06 00:03 | 39.32515 | -85.24082 | 20822 ft | 359 kts | 63° |
| 2026-05-06 00:03 | 39.33752 | -85.21312 | 20819 ft | 355 kts | 49° |
| 2026-05-06 00:03 | 39.35388 | -85.18964 | 20841 ft | 349 kts | 37° |
| 2026-05-06 00:04 | 39.37054 | -85.16671 | 20843 ft | 354 kts | 49° |
| 2026-05-06 00:04 | 39.38437 | -85.14035 | 20842 ft | 356 kts | 54° |
| 2026-05-06 00:04 | 39.39731 | -85.11303 | 20842 ft | 356 kts | 56° |
| 2026-05-06 00:04 | 39.41008 | -85.08554 | 20844 ft | 356 kts | 56° |
| 2026-05-06 00:05 | 39.43579 | -85.03073 | 20835 ft | 356 kts | 55° |
| 2026-05-06 00:05 | 39.44875 | -85.00345 | 20834 ft | 356 kts | 55° |
| 2026-05-06 00:05 | 39.46172 | -84.97631 | 20846 ft | 355 kts | 55° |
| 2026-05-06 00:06 | 39.47394 | -84.95085 | 20842 ft | 355 kts | 54° |
| 2026-05-06 00:06 | 39.48693 | -84.92381 | 20844 ft | 356 kts | 54° |
| 2026-05-06 00:06 | 39.49966 | -84.89734 | 20842 ft | 356 kts | 54° |
| 2026-05-06 00:06 | 39.51276 | -84.87010 | 20839 ft | 356 kts | 55° |
| 2026-05-06 00:07 | 39.52581 | -84.84294 | 20842 ft | 355 kts | 55° |
| 2026-05-06 00:07 | 39.53885 | -84.81577 | 20840 ft | 355 kts | 55° |
| 2026-05-06 00:07 | 39.55190 | -84.78856 | 20842 ft | 355 kts | 55° |
| 2026-05-06 00:07 | 39.56476 | -84.76174 | 20842 ft | 355 kts | 55° |
| 2026-05-06 00:08 | 39.57778 | -84.73452 | 20845 ft | 355 kts | 55° |
| 2026-05-06 00:08 | 39.59079 | -84.70735 | 20844 ft | 355 kts | 55° |
| 2026-05-06 00:08 | 39.60377 | -84.68020 | 20840 ft | 355 kts | 55° |
| 2026-05-06 00:08 | 39.61675 | -84.65303 | 20835 ft | 354 kts | 55° |
| 2026-05-06 00:09 | 39.62974 | -84.62581 | 20836 ft | 354 kts | 55° |
| 2026-05-06 00:09 | 39.64290 | -84.59821 | 20850 ft | 354 kts | 55° |
| 2026-05-06 00:09 | 39.65584 | -84.57105 | 20847 ft | 354 kts | 55° |
| 2026-05-06 00:09 | 39.66864 | -84.54417 | 20850 ft | 354 kts | 55° |
| 2026-05-06 00:10 | 39.68156 | -84.51699 | 20850 ft | 354 kts | 55° |
| 2026-05-06 00:10 | 39.69452 | -84.48973 | 20848 ft | 354 kts | 55° |
| 2026-05-06 00:10 | 39.70759 | -84.46219 | 20848 ft | 354 kts | 55° |
| 2026-05-06 00:10 | 39.72036 | -84.43528 | 20849 ft | 354 kts | 55° |
| 2026-05-06 00:11 | 39.73331 | -84.40794 | 20847 ft | 354 kts | 55° |
| 2026-05-06 00:11 | 39.74622 | -84.38068 | 20836 ft | 354 kts | 55° |
| 2026-05-06 00:11 | 39.75911 | -84.35344 | 20841 ft | 354 kts | 55° |
| 2026-05-06 00:11 | 39.77199 | -84.32618 | 20844 ft | 354 kts | 55° |
| 2026-05-06 00:12 | 39.78486 | -84.29893 | 20841 ft | 354 kts | 55° |
| 2026-05-06 00:12 | 39.79733 | -84.27250 | 20842 ft | 354 kts | 55° |
| 2026-05-06 00:12 | 39.80986 | -84.24593 | 20844 ft | 354 kts | 55° |
| 2026-05-06 00:12 | 39.82273 | -84.21861 | 20841 ft | 354 kts | 55° |
| 2026-05-06 00:13 | 39.83556 | -84.19136 | 20842 ft | 354 kts | 55° |
| 2026-05-06 00:13 | 39.84840 | -84.16405 | 20841 ft | 354 kts | 55° |
| 2026-05-06 00:13 | 39.86124 | -84.13671 | 20845 ft | 354 kts | 55° |
| 2026-05-06 00:13 | 39.87412 | -84.10928 | 20821 ft | 354 kts | 55° |
| 2026-05-06 00:14 | 39.88693 | -84.08196 | 20822 ft | 354 kts | 55° |
| 2026-05-06 00:14 | 39.89978 | -84.05455 | 20824 ft | 354 kts | 55° |
| 2026-05-06 00:14 | 39.91260 | -84.02717 | 20825 ft | 354 kts | 55° |
| 2026-05-06 00:14 | 39.92539 | -83.99982 | 20826 ft | 354 kts | 55° |
| 2026-05-06 00:15 | 39.93822 | -83.97237 | 20828 ft | 354 kts | 55° |
| 2026-05-06 00:15 | 39.95103 | -83.94493 | 20829 ft | 355 kts | 55° |
| 2026-05-06 00:15 | 39.96386 | -83.91745 | 20830 ft | 355 kts | 55° |
| 2026-05-06 00:15 | 39.97665 | -83.89000 | 20832 ft | 355 kts | 56° |
| 2026-05-06 00:16 | 39.98948 | -83.86245 | 20833 ft | 355 kts | 56° |
| 2026-05-06 00:16 | 40.00228 | -83.83497 | 20833 ft | 355 kts | 56° |
| 2026-05-06 00:16 | 40.01507 | -83.80744 | 20837 ft | 355 kts | 56° |
| 2026-05-06 00:16 | 40.02788 | -83.77985 | 20854 ft | 355 kts | 56° |
| 2026-05-06 00:17 | 40.04069 | -83.75225 | 20853 ft | 356 kts | 56° |
| 2026-05-06 00:17 | 40.05351 | -83.72460 | 20848 ft | 356 kts | 56° |
| 2026-05-06 00:17 | 40.06633 | -83.69693 | 20848 ft | 356 kts | 56° |
| 2026-05-06 00:17 | 40.07916 | -83.66921 | 20849 ft | 356 kts | 56° |
| 2026-05-06 00:18 | 40.09193 | -83.64158 | 20850 ft | 356 kts | 56° |
| 2026-05-06 00:18 | 40.10474 | -83.61387 | 20852 ft | 356 kts | 56° |
| 2026-05-06 00:18 | 40.11751 | -83.58619 | 20852 ft | 356 kts | 56° |
| 2026-05-06 00:18 | 40.13027 | -83.55853 | 20842 ft | 356 kts | 56° |
| 2026-05-06 00:19 | 40.14304 | -83.53081 | 20841 ft | 356 kts | 56° |
| 2026-05-06 00:19 | 40.15578 | -83.50315 | 20842 ft | 356 kts | 56° |
| 2026-05-06 00:19 | 40.16857 | -83.47540 | 20841 ft | 355 kts | 55° |
| 2026-05-06 00:19 | 40.18273 | -83.44910 | 20847 ft | 353 kts | 47° |
| 2026-05-06 00:20 | 40.19908 | -83.42539 | 20842 ft | 349 kts | 39° |
| 2026-05-06 00:20 | 40.21681 | -83.40385 | 20845 ft | 348 kts | 38° |
| 2026-05-06 00:20 | 40.23433 | -83.38186 | 20842 ft | 349 kts | 39° |
| 2026-05-06 00:20 | 40.25176 | -83.35985 | 20839 ft | 349 kts | 39° |
| 2026-05-06 00:21 | 40.26925 | -83.33786 | 20839 ft | 348 kts | 39° |
| 2026-05-06 00:21 | 40.28673 | -83.31594 | 20841 ft | 348 kts | 39° |
| 2026-05-06 00:21 | 40.30423 | -83.29403 | 20838 ft | 348 kts | 39° |
| 2026-05-06 00:21 | 40.32177 | -83.27205 | 20844 ft | 348 kts | 39° |
| 2026-05-06 00:22 | 40.33926 | -83.25015 | 20843 ft | 348 kts | 39° |
| 2026-05-06 00:22 | 40.35678 | -83.22818 | 20839 ft | 348 kts | 39° |
| 2026-05-06 00:22 | 40.37426 | -83.20626 | 20839 ft | 348 kts | 39° |
| 2026-05-06 00:22 | 40.39171 | -83.18435 | 20844 ft | 348 kts | 39° |
| 2026-05-06 00:23 | 40.40918 | -83.16239 | 20843 ft | 348 kts | 39° |
| 2026-05-06 00:23 | 40.42665 | -83.14043 | 20840 ft | 348 kts | 39° |
| 2026-05-06 00:23 | 40.44412 | -83.11845 | 20848 ft | 348 kts | 39° |
| 2026-05-06 00:23 | 40.46137 | -83.09673 | 20851 ft | 348 kts | 39° |
| 2026-05-06 00:24 | 40.47881 | -83.07475 | 20849 ft | 347 kts | 39° |
| 2026-05-06 00:24 | 40.49647 | -83.05249 | 20857 ft | 348 kts | 39° |
| 2026-05-06 00:24 | 40.51373 | -83.03089 | 20854 ft | 347 kts | 39° |
| 2026-05-06 00:24 | 40.53150 | -83.00869 | 20858 ft | 348 kts | 39° |
| 2026-05-06 00:25 | 40.54900 | -82.98680 | 20773 ft | 350 kts | 39° |
| 2026-05-06 00:25 | 40.56659 | -82.96478 | 20648 ft | 354 kts | 39° |
| 2026-05-06 00:25 | 40.58445 | -82.94238 | 20524 ft | 356 kts | 39° |
| 2026-05-06 00:25 | 40.60246 | -82.91976 | 20302 ft | 361 kts | 39° |
| 2026-05-06 00:26 | 40.62076 | -82.89676 | 20057 ft | 365 kts | 40° |
| 2026-05-06 00:26 | 40.63921 | -82.87353 | 19813 ft | 368 kts | 40° |
| 2026-05-06 00:26 | 40.65779 | -82.85012 | 19578 ft | 370 kts | 40° |
| 2026-05-06 00:26 | 40.67641 | -82.82665 | 19340 ft | 372 kts | 40° |
| 2026-05-06 00:27 | 40.69513 | -82.80303 | 19105 ft | 373 kts | 40° |
| 2026-05-06 00:27 | 40.70784 | -82.78699 | 18946 ft | 374 kts | 40° |
| 2026-05-06 00:27 | 40.72658 | -82.76332 | 18704 ft | 374 kts | 40° |
| 2026-05-06 00:27 | 40.75149 | -82.73183 | 18400 ft | 375 kts | 41° |
| 2026-05-06 00:28 | 40.76398 | -82.71603 | 18250 ft | 375 kts | 41° |
| 2026-05-06 00:28 | 40.78277 | -82.69225 | 18001 ft | 374 kts | 41° |
| 2026-05-06 00:28 | 40.80182 | -82.66811 | 17729 ft | 374 kts | 41° |
| 2026-05-06 00:28 | 40.82030 | -82.64467 | 17467 ft | 374 kts | 41° |
| 2026-05-06 00:29 | 40.83909 | -82.62083 | 17207 ft | 373 kts | 41° |
| 2026-05-06 00:29 | 40.85779 | -82.59708 | 16947 ft | 373 kts | 41° |
| 2026-05-06 00:29 | 40.87645 | -82.57336 | 16692 ft | 372 kts | 41° |
| 2026-05-06 00:29 | 40.89532 | -82.54936 | 16430 ft | 372 kts | 41° |
| 2026-05-06 00:30 | 40.91370 | -82.52595 | 16176 ft | 371 kts | 41° |
| 2026-05-06 00:30 | 40.93227 | -82.50229 | 15933 ft | 371 kts | 41° |
| 2026-05-06 00:30 | 40.95085 | -82.47860 | 15692 ft | 370 kts | 41° |
| 2026-05-06 00:30 | 40.96934 | -82.45503 | 15441 ft | 370 kts | 41° |
| 2026-05-06 00:31 | 40.98789 | -82.43137 | 15200 ft | 370 kts | 41° |
| 2026-05-06 00:31 | 41.00640 | -82.40774 | 14958 ft | 369 kts | 41° |
| 2026-05-06 00:31 | 41.02485 | -82.38416 | 14766 ft | 368 kts | 41° |
| 2026-05-06 00:31 | 41.04316 | -82.36072 | 14578 ft | 363 kts | 41° |
| 2026-05-06 00:32 | 41.06139 | -82.33749 | 14388 ft | 356 kts | 40° |
| 2026-05-06 00:32 | 41.07938 | -82.31603 | 14212 ft | 351 kts | 38° |
| 2026-05-06 00:32 | 41.09760 | -82.29475 | 14025 ft | 347 kts | 38° |
| 2026-05-06 00:32 | 41.11556 | -82.27371 | 13842 ft | 343 kts | 38° |
| 2026-05-06 00:33 | 41.13364 | -82.25308 | 13653 ft | 341 kts | 37° |
| 2026-05-06 00:33 | 41.15155 | -82.23271 | 13450 ft | 340 kts | 37° |
| 2026-05-06 00:33 | 41.16935 | -82.21231 | 13246 ft | 335 kts | 38° |
| 2026-05-06 00:33 | 41.18695 | -82.19207 | 12896 ft | 335 kts | 38° |
| 2026-05-06 00:34 | 41.20456 | -82.17176 | 12505 ft | 336 kts | 38° |
| 2026-05-06 00:34 | 41.22221 | -82.15135 | 12121 ft | 336 kts | 38° |
| 2026-05-06 00:34 | 41.24010 | -82.13134 | 11740 ft | 334 kts | 32° |
| 2026-05-06 00:34 | 41.26038 | -82.11710 | 11367 ft | 330 kts | 23° |
| 2026-05-06 00:35 | 41.28041 | -82.10227 | 10999 ft | 331 kts | 28° |
| 2026-05-06 00:35 | 41.29964 | -82.08538 | 10634 ft | 332 kts | 32° |
| 2026-05-06 00:35 | 41.31854 | -82.06771 | 10276 ft | 332 kts | 33° |
| 2026-05-06 00:35 | 41.33731 | -82.04991 | 9915 ft | 331 kts | 33° |
| 2026-05-06 00:36 | 41.35602 | -82.03209 | 9534 ft | 331 kts | 33° |
| 2026-05-06 00:36 | 41.37470 | -82.01427 | 9118 ft | 330 kts | 33° |
| 2026-05-06 00:36 | 41.39328 | -81.99656 | 8728 ft | 329 kts | 33° |
| 2026-05-06 00:36 | 41.41182 | -81.97888 | 8345 ft | 327 kts | 33° |
| 2026-05-06 00:37 | 41.43035 | -81.96126 | 7972 ft | 326 kts | 33° |
| 2026-05-06 00:37 | 41.44880 | -81.94375 | 7589 ft | 325 kts | 33° |
| 2026-05-06 00:37 | 41.46715 | -81.92642 | 7282 ft | 321 kts | 33° |
| 2026-05-06 00:37 | 41.48520 | -81.90935 | 7138 ft | 315 kts | 33° |
| 2026-05-06 00:38 | 41.50279 | -81.89273 | 7076 ft | 314 kts | 33° |
| 2026-05-06 00:38 | 41.52050 | -81.87600 | 7046 ft | 311 kts | 33° |
| 2026-05-06 00:38 | 41.53806 | -81.85930 | 7033 ft | 309 kts | 34° |
| 2026-05-06 00:38 | 41.55510 | -81.84192 | 7038 ft | 307 kts | 36° |
| 2026-05-06 00:39 | 41.57182 | -81.82431 | 6962 ft | 308 kts | 37° |
| 2026-05-06 00:39 | 41.58861 | -81.80646 | 6796 ft | 305 kts | 37° |
| 2026-05-06 00:39 | 41.60470 | -81.78919 | 6746 ft | 290 kts | 37° |
| 2026-05-06 00:39 | 41.62034 | -81.77241 | 6551 ft | 286 kts | 37° |
| 2026-05-06 00:40 | 41.63570 | -81.75594 | 6337 ft | 284 kts | 37° |
| 2026-05-06 00:40 | 41.65131 | -81.73924 | 5904 ft | 289 kts | 37° |
| 2026-05-06 00:40 | 41.66463 | -81.71941 | 5480 ft | 290 kts | 65° |
| 2026-05-06 00:40 | 41.66848 | -81.69369 | 5053 ft | 280 kts | 100° |
| 2026-05-06 00:41 | 41.66163 | -81.67043 | 4632 ft | 263 kts | 136° |
| 2026-05-06 00:41 | 41.64707 | -81.65772 | 4194 ft | 247 kts | 171° |
| 2026-05-06 00:41 | 41.63053 | -81.65909 | 3759 ft | 238 kts | 197° |
| 2026-05-06 00:41 | 41.61452 | -81.66508 | 3364 ft | 239 kts | 199° |
| 2026-05-06 00:42 | 41.59881 | -81.67161 | 3181 ft | 233 kts | 200° |
| 2026-05-06 00:42 | 41.58367 | -81.67823 | 3093 ft | 226 kts | 201° |
| 2026-05-06 00:42 | 41.56926 | -81.68467 | 3047 ft | 208 kts | 201° |
| 2026-05-06 00:42 | 41.55610 | -81.69056 | 3026 ft | 191 kts | 201° |
| 2026-05-06 00:43 | 41.54409 | -81.69584 | 3022 ft | 173 kts | 201° |
| 2026-05-06 00:43 | 41.53315 | -81.70066 | 3019 ft | 158 kts | 204° |
| 2026-05-06 00:43 | 41.52349 | -81.70701 | 3025 ft | 156 kts | 213° |
| 2026-05-06 00:43 | 41.51395 | -81.71435 | 3018 ft | 160 kts | 213° |
| 2026-05-06 00:44 | 41.50411 | -81.72166 | 3029 ft | 163 kts | 211° |
| 2026-05-06 00:44 | 41.49405 | -81.72888 | 3019 ft | 165 kts | 212° |
| 2026-05-06 00:44 | 41.48495 | -81.73795 | 2991 ft | 160 kts | 229° |
| 2026-05-06 00:44 | 41.47811 | -81.74879 | 2777 ft | 147 kts | 235° |
| 2026-05-06 00:45 | 41.47207 | -81.75923 | 2574 ft | 138 kts | 235° |
| 2026-05-06 00:45 | 41.46617 | -81.76892 | 2370 ft | 134 kts | 234° |
| 2026-05-06 00:45 | 41.46009 | -81.77839 | 2159 ft | 132 kts | 233° |
| 2026-05-06 00:45 | 41.45377 | -81.78821 | 1966 ft | 142 kts | 232° |
| 2026-05-06 00:46 | 41.44730 | -81.79848 | 1768 ft | 146 kts | 233° |
| 2026-05-06 00:46 | 41.44083 | -81.80878 | 1563 ft | 144 kts | 231° |
| 2026-05-06 00:46 | 41.43458 | -81.81864 | 1387 ft | 135 kts | 231° |
| 2026-05-06 00:46 | 41.42892 | -81.82750 | 1255 ft | 114 kts | 232° |
| 2026-05-06 00:47 | 41.42391 | -81.83543 | 1100 ft | 115 kts | 231° |
| 2026-05-06 00:47 | 41.41896 | -81.84328 | 956 ft | 107 kts | 232° |
| 2026-05-06 00:47 | 41.41417 | -81.85096 | 800 ft | 104 kts | 232° |
| 2026-05-06 00:47 | 41.41042 | -81.85699 | 779 ft | 83 kts | 230° |
| 2026-05-06 00:48 | 41.40896 | -81.85905 | 781 ft | 5 kts | 118° |
| 2026-05-06 00:48 | 41.40837 | -81.85847 | 781 ft | 20 kts | 145° |
| 2026-05-06 00:48 | 41.40720 | -81.85724 | 777 ft | 20 kts | 144° |
| 2026-05-06 00:48 | 41.40662 | -81.85595 | 778 ft | 15 kts | 93° |
| 2026-05-06 00:49 | 41.40657 | -81.85408 | 780 ft | 22 kts | 94° |
| 2026-05-06 00:49 | 41.40651 | -81.85206 | 779 ft | 21 kts | 98° |
| 2026-05-06 00:49 | 41.40641 | -81.85026 | 784 ft | 18 kts | 94° |
| 2026-05-06 00:49 | 41.40633 | -81.84854 | 786 ft | 19 kts | 93° |
| 2026-05-06 00:50 | 41.40619 | -81.84676 | 788 ft | 19 kts | 123° |
| 2026-05-06 00:50 | 41.40530 | -81.84639 | 790 ft | 5 kts | 84° |
| 2026-05-06 00:50 | 41.40613 | -81.84618 | 790 ft | 14 kts | 51° |
| 2026-05-06 00:50 | 41.40617 | -81.84451 | 792 ft | 23 kts | 94° |
| 2026-05-06 00:51 | 41.40513 | -81.84368 | 795 ft | 24 kts | 179° |
| 2026-05-06 00:51 | 41.40470 | -81.84431 | 794 ft | 18 kts | 270° |
| 2026-05-06 00:51 | 41.40451 | -81.84467 | 793 ft | 0 kts | 168° |